sensor_id;sensor_type;location;lat;lon;timestamp;P1;durP1;ratioP1;P2;durP2;ratioP2
27833;SDS011;15200;50.570;7.244;2023-05-29T00:01:27;6.00;;;3.55;;
27833;SDS011;15200;50.570;7.244;2023-05-29T00:03:55;4.97;;;3.67;;
27833;SDS011;15200;50.570;7.244;2023-05-29T00:06:22;7.30;;;3.45;;
27833;SDS011;15200;50.570;7.244;2023-05-29T00:08:50;7.25;;;3.87;;
27833;SDS011;15200;50.570;7.244;2023-05-29T00:11:17;10.90;;;3.30;;
27833;SDS011;15200;50.570;7.244;2023-05-29T00:13:44;6.37;;;3.42;;
27833;SDS011;15200;50.570;7.244;2023-05-29T00:16:12;9.00;;;3.40;;
27833;SDS011;15200;50.570;7.244;2023-05-29T00:18:39;8.43;;;4.10;;
27833;SDS011;15200;50.570;7.244;2023-05-29T00:21:08;5.75;;;3.50;;
27833;SDS011;15200;50.570;7.244;2023-05-29T00:23:35;7.15;;;3.55;;
27833;SDS011;15200;50.570;7.244;2023-05-29T00:26:02;6.60;;;3.25;;
27833;SDS011;15200;50.570;7.244;2023-05-29T00:28:30;6.85;;;3.10;;
27833;SDS011;15200;50.570;7.244;2023-05-29T00:30:57;4.30;;;2.55;;
27833;SDS011;15200;50.570;7.244;2023-05-29T00:33:24;4.80;;;3.08;;
27833;SDS011;15200;50.570;7.244;2023-05-29T00:35:52;6.35;;;3.10;;
27833;SDS011;15200;50.570;7.244;2023-05-29T00:38:19;3.98;;;3.17;;
27833;SDS011;15200;50.570;7.244;2023-05-29T00:40:46;5.12;;;3.55;;
27833;SDS011;15200;50.570;7.244;2023-05-29T00:43:14;6.28;;;3.65;;
27833;SDS011;15200;50.570;7.244;2023-05-29T00:45:41;6.40;;;3.10;;
27833;SDS011;15200;50.570;7.244;2023-05-29T00:48:08;6.33;;;3.47;;
27833;SDS011;15200;50.570;7.244;2023-05-29T00:50:36;8.15;;;3.25;;
27833;SDS011;15200;50.570;7.244;2023-05-29T00:53:03;5.00;;;3.10;;
27833;SDS011;15200;50.570;7.244;2023-05-29T00:55:31;7.30;;;3.45;;
27833;SDS011;15200;50.570;7.244;2023-05-29T00:57:58;5.65;;;3.40;;
27833;SDS011;15200;50.570;7.244;2023-05-29T01:00:26;7.08;;;3.55;;
27833;SDS011;15200;50.570;7.244;2023-05-29T01:02:53;3.58;;;2.90;;
27833;SDS011;15200;50.570;7.244;2023-05-29T01:05:22;7.65;;;3.15;;
27833;SDS011;15200;50.570;7.244;2023-05-29T01:07:50;7.47;;;3.92;;
27833;SDS011;15200;50.570;7.244;2023-05-29T01:10:17;5.17;;;3.10;;
27833;SDS011;15200;50.570;7.244;2023-05-29T01:12:52;7.28;;;3.55;;
27833;SDS011;15200;50.570;7.244;2023-05-29T01:18:00;7.28;;;3.47;;
27833;SDS011;15200;50.570;7.244;2023-05-29T01:20:24;6.75;;;3.62;;
27833;SDS011;15200;50.570;7.244;2023-05-29T01:22:58;5.22;;;3.25;;
27833;SDS011;15200;50.570;7.244;2023-05-29T01:27:58;5.83;;;3.33;;
27833;SDS011;15200;50.570;7.244;2023-05-29T01:30:28;4.35;;;3.30;;
27833;SDS011;15200;50.570;7.244;2023-05-29T01:32:55;6.33;;;3.17;;
27833;SDS011;15200;50.570;7.244;2023-05-29T01:35:23;9.85;;;3.60;;
27833;SDS011;15200;50.570;7.244;2023-05-29T01:37:51;6.05;;;3.12;;
27833;SDS011;15200;50.570;7.244;2023-05-29T01:40:18;6.12;;;3.58;;
27833;SDS011;15200;50.570;7.244;2023-05-29T01:42:45;5.20;;;3.35;;
27833;SDS011;15200;50.570;7.244;2023-05-29T01:45:13;5.78;;;3.50;;
27833;SDS011;15200;50.570;7.244;2023-05-29T01:47:40;6.92;;;3.85;;
27833;SDS011;15200;50.570;7.244;2023-05-29T01:50:07;5.22;;;3.40;;
27833;SDS011;15200;50.570;7.244;2023-05-29T01:52:35;8.60;;;3.80;;
27833;SDS011;15200;50.570;7.244;2023-05-29T01:55:03;5.65;;;3.70;;
27833;SDS011;15200;50.570;7.244;2023-05-29T01:57:30;4.40;;;3.70;;
27833;SDS011;15200;50.570;7.244;2023-05-29T01:59:57;4.90;;;3.30;;
27833;SDS011;15200;50.570;7.244;2023-05-29T02:02:25;5.87;;;3.92;;
27833;SDS011;15200;50.570;7.244;2023-05-29T02:04:52;5.08;;;3.65;;
27833;SDS011;15200;50.570;7.244;2023-05-29T02:07:19;5.70;;;3.65;;
27833;SDS011;15200;50.570;7.244;2023-05-29T02:09:47;5.83;;;3.62;;
27833;SDS011;15200;50.570;7.244;2023-05-29T02:12:14;5.08;;;3.55;;
27833;SDS011;15200;50.570;7.244;2023-05-29T02:14:42;5.42;;;3.52;;
27833;SDS011;15200;50.570;7.244;2023-05-29T02:17:09;6.25;;;3.77;;
27833;SDS011;15200;50.570;7.244;2023-05-29T02:19:37;6.17;;;3.70;;
27833;SDS011;15200;50.570;7.244;2023-05-29T02:22:04;6.25;;;3.40;;
27833;SDS011;15200;50.570;7.244;2023-05-29T02:24:31;5.25;;;3.52;;
27833;SDS011;15200;50.570;7.244;2023-05-29T02:26:59;7.15;;;3.52;;
27833;SDS011;15200;50.570;7.244;2023-05-29T02:29:27;7.22;;;3.80;;
27833;SDS011;15200;50.570;7.244;2023-05-29T02:31:54;7.60;;;3.20;;
27833;SDS011;15200;50.570;7.244;2023-05-29T02:34:21;6.95;;;4.08;;
27833;SDS011;15200;50.570;7.244;2023-05-29T02:36:49;5.83;;;4.05;;
27833;SDS011;15200;50.570;7.244;2023-05-29T02:39:18;6.22;;;3.30;;
27833;SDS011;15200;50.570;7.244;2023-05-29T02:41:45;6.33;;;3.50;;
27833;SDS011;15200;50.570;7.244;2023-05-29T02:44:13;8.28;;;4.10;;
27833;SDS011;15200;50.570;7.244;2023-05-29T02:46:40;6.72;;;3.70;;
27833;SDS011;15200;50.570;7.244;2023-05-29T02:49:07;4.67;;;3.30;;
27833;SDS011;15200;50.570;7.244;2023-05-29T02:51:35;5.25;;;3.72;;
27833;SDS011;15200;50.570;7.244;2023-05-29T02:54:03;4.83;;;3.37;;
27833;SDS011;15200;50.570;7.244;2023-05-29T02:56:31;6.78;;;3.37;;
27833;SDS011;15200;50.570;7.244;2023-05-29T02:59:00;7.83;;;4.30;;
27833;SDS011;15200;50.570;7.244;2023-05-29T03:01:27;9.78;;;4.22;;
27833;SDS011;15200;50.570;7.244;2023-05-29T03:03:54;6.30;;;3.70;;
27833;SDS011;15200;50.570;7.244;2023-05-29T03:06:22;7.10;;;4.62;;
27833;SDS011;15200;50.570;7.244;2023-05-29T03:08:50;5.95;;;4.22;;
27833;SDS011;15200;50.570;7.244;2023-05-29T03:11:17;8.73;;;4.58;;
27833;SDS011;15200;50.570;7.244;2023-05-29T03:13:44;8.98;;;4.83;;
27833;SDS011;15200;50.570;7.244;2023-05-29T03:16:13;10.72;;;4.80;;
27833;SDS011;15200;50.570;7.244;2023-05-29T03:18:40;5.33;;;3.80;;
27833;SDS011;15200;50.570;7.244;2023-05-29T03:21:08;7.67;;;4.12;;
27833;SDS011;15200;50.570;7.244;2023-05-29T03:23:35;7.35;;;4.60;;
27833;SDS011;15200;50.570;7.244;2023-05-29T03:26:02;7.03;;;4.47;;
27833;SDS011;15200;50.570;7.244;2023-05-29T03:28:30;9.50;;;4.28;;
27833;SDS011;15200;50.570;7.244;2023-05-29T03:30:57;7.45;;;4.10;;
27833;SDS011;15200;50.570;7.244;2023-05-29T03:33:24;6.90;;;4.00;;
27833;SDS011;15200;50.570;7.244;2023-05-29T03:35:52;8.20;;;4.12;;
27833;SDS011;15200;50.570;7.244;2023-05-29T03:38:19;6.40;;;4.00;;
27833;SDS011;15200;50.570;7.244;2023-05-29T03:40:47;9.18;;;4.00;;
27833;SDS011;15200;50.570;7.244;2023-05-29T03:43:14;9.00;;;4.40;;
27833;SDS011;15200;50.570;7.244;2023-05-29T03:45:41;6.40;;;3.95;;
27833;SDS011;15200;50.570;7.244;2023-05-29T03:48:08;12.98;;;4.25;;
27833;SDS011;15200;50.570;7.244;2023-05-29T03:50:36;9.05;;;4.53;;
27833;SDS011;15200;50.570;7.244;2023-05-29T03:53:03;5.60;;;3.75;;
27833;SDS011;15200;50.570;7.244;2023-05-29T03:55:31;10.78;;;3.70;;
27833;SDS011;15200;50.570;7.244;2023-05-29T03:57:58;7.10;;;4.08;;
27833;SDS011;15200;50.570;7.244;2023-05-29T04:00:26;6.67;;;4.22;;
27833;SDS011;15200;50.570;7.244;2023-05-29T04:02:54;6.08;;;3.80;;
27833;SDS011;15200;50.570;7.244;2023-05-29T04:05:22;6.40;;;3.67;;
27833;SDS011;15200;50.570;7.244;2023-05-29T04:07:49;7.97;;;3.90;;
27833;SDS011;15200;50.570;7.244;2023-05-29T04:10:16;9.33;;;3.87;;
27833;SDS011;15200;50.570;7.244;2023-05-29T04:12:44;6.53;;;4.05;;
27833;SDS011;15200;50.570;7.244;2023-05-29T04:15:11;9.20;;;3.70;;
27833;SDS011;15200;50.570;7.244;2023-05-29T04:17:38;6.65;;;3.77;;
27833;SDS011;15200;50.570;7.244;2023-05-29T04:20:06;11.63;;;3.33;;
27833;SDS011;15200;50.570;7.244;2023-05-29T04:22:35;10.63;;;3.77;;
27833;SDS011;15200;50.570;7.244;2023-05-29T04:25:03;9.88;;;3.90;;
27833;SDS011;15200;50.570;7.244;2023-05-29T04:27:31;5.15;;;3.30;;
27833;SDS011;15200;50.570;7.244;2023-05-29T04:30:04;6.12;;;3.30;;
27833;SDS011;15200;50.570;7.244;2023-05-29T04:32:32;7.75;;;3.60;;
27833;SDS011;15200;50.570;7.244;2023-05-29T04:34:59;8.08;;;3.22;;
27833;SDS011;15200;50.570;7.244;2023-05-29T04:37:30;4.87;;;3.45;;
27833;SDS011;15200;50.570;7.244;2023-05-29T04:39:59;9.93;;;4.03;;
27833;SDS011;15200;50.570;7.244;2023-05-29T04:42:26;10.23;;;3.72;;
27833;SDS011;15200;50.570;7.244;2023-05-29T04:44:53;4.30;;;3.00;;
27833;SDS011;15200;50.570;7.244;2023-05-29T04:47:21;6.58;;;3.17;;
27833;SDS011;15200;50.570;7.244;2023-05-29T04:49:48;8.33;;;3.75;;
27833;SDS011;15200;50.570;7.244;2023-05-29T04:52:16;9.20;;;3.75;;
27833;SDS011;15200;50.570;7.244;2023-05-29T04:54:44;7.90;;;4.10;;
27833;SDS011;15200;50.570;7.244;2023-05-29T04:57:11;8.33;;;3.77;;
27833;SDS011;15200;50.570;7.244;2023-05-29T04:59:38;6.00;;;3.50;;
27833;SDS011;15200;50.570;7.244;2023-05-29T05:02:06;6.10;;;3.92;;
27833;SDS011;15200;50.570;7.244;2023-05-29T05:04:33;6.47;;;3.60;;
27833;SDS011;15200;50.570;7.244;2023-05-29T05:07:01;12.35;;;3.70;;
27833;SDS011;15200;50.570;7.244;2023-05-29T05:09:29;7.95;;;3.75;;
27833;SDS011;15200;50.570;7.244;2023-05-29T05:11:57;7.70;;;3.60;;
27833;SDS011;15200;50.570;7.244;2023-05-29T05:14:24;8.75;;;3.83;;
27833;SDS011;15200;50.570;7.244;2023-05-29T05:16:52;7.00;;;3.65;;
27833;SDS011;15200;50.570;7.244;2023-05-29T05:19:19;4.90;;;3.02;;
27833;SDS011;15200;50.570;7.244;2023-05-29T05:21:46;4.65;;;3.35;;
27833;SDS011;15200;50.570;7.244;2023-05-29T05:24:13;9.48;;;3.65;;
27833;SDS011;15200;50.570;7.244;2023-05-29T05:26:41;7.17;;;3.58;;
27833;SDS011;15200;50.570;7.244;2023-05-29T05:29:08;4.53;;;3.22;;
27833;SDS011;15200;50.570;7.244;2023-05-29T05:31:35;7.28;;;3.67;;
27833;SDS011;15200;50.570;7.244;2023-05-29T05:34:03;6.17;;;3.50;;
27833;SDS011;15200;50.570;7.244;2023-05-29T05:36:30;5.55;;;3.50;;
27833;SDS011;15200;50.570;7.244;2023-05-29T05:38:59;8.48;;;3.60;;
27833;SDS011;15200;50.570;7.244;2023-05-29T05:41:26;8.18;;;3.80;;
27833;SDS011;15200;50.570;7.244;2023-05-29T05:43:53;6.28;;;3.60;;
27833;SDS011;15200;50.570;7.244;2023-05-29T05:46:21;8.68;;;4.15;;
27833;SDS011;15200;50.570;7.244;2023-05-29T05:48:48;5.30;;;3.55;;
27833;SDS011;15200;50.570;7.244;2023-05-29T05:51:15;5.72;;;3.20;;
27833;SDS011;15200;50.570;7.244;2023-05-29T05:53:43;7.05;;;3.55;;
27833;SDS011;15200;50.570;7.244;2023-05-29T05:56:10;4.55;;;3.42;;
27833;SDS011;15200;50.570;7.244;2023-05-29T05:58:37;6.83;;;4.05;;
27833;SDS011;15200;50.570;7.244;2023-05-29T06:01:04;8.05;;;3.83;;
27833;SDS011;15200;50.570;7.244;2023-05-29T06:03:34;6.47;;;3.12;;
27833;SDS011;15200;50.570;7.244;2023-05-29T06:06:01;6.08;;;3.92;;
27833;SDS011;15200;50.570;7.244;2023-05-29T06:08:29;9.60;;;3.62;;
27833;SDS011;15200;50.570;7.244;2023-05-29T06:10:56;6.47;;;3.65;;
27833;SDS011;15200;50.570;7.244;2023-05-29T06:13:24;9.18;;;4.00;;
27833;SDS011;15200;50.570;7.244;2023-05-29T06:15:51;6.60;;;3.83;;
27833;SDS011;15200;50.570;7.244;2023-05-29T06:18:18;7.40;;;4.03;;
27833;SDS011;15200;50.570;7.244;2023-05-29T06:20:46;9.68;;;3.85;;
27833;SDS011;15200;50.570;7.244;2023-05-29T06:23:13;7.28;;;4.20;;
27833;SDS011;15200;50.570;7.244;2023-05-29T06:25:40;8.10;;;3.60;;
27833;SDS011;15200;50.570;7.244;2023-05-29T06:28:08;5.72;;;4.17;;
27833;SDS011;15200;50.570;7.244;2023-05-29T06:30:35;9.18;;;3.87;;
27833;SDS011;15200;50.570;7.244;2023-05-29T06:33:02;10.00;;;4.62;;
27833;SDS011;15200;50.570;7.244;2023-05-29T06:35:29;9.25;;;4.37;;
27833;SDS011;15200;50.570;7.244;2023-05-29T06:37:57;8.25;;;4.25;;
27833;SDS011;15200;50.570;7.244;2023-05-29T06:40:24;8.70;;;4.25;;
27833;SDS011;15200;50.570;7.244;2023-05-29T06:42:51;6.62;;;3.60;;
27833;SDS011;15200;50.570;7.244;2023-05-29T06:45:19;8.88;;;4.30;;
27833;SDS011;15200;50.570;7.244;2023-05-29T06:47:46;9.60;;;4.00;;
27833;SDS011;15200;50.570;7.244;2023-05-29T06:50:13;10.30;;;4.20;;
27833;SDS011;15200;50.570;7.244;2023-05-29T06:52:41;8.20;;;3.87;;
27833;SDS011;15200;50.570;7.244;2023-05-29T06:55:08;9.78;;;4.42;;
27833;SDS011;15200;50.570;7.244;2023-05-29T06:57:35;6.80;;;4.28;;
27833;SDS011;15200;50.570;7.244;2023-05-29T07:00:04;7.25;;;4.17;;
27833;SDS011;15200;50.570;7.244;2023-05-29T07:02:32;9.38;;;4.20;;
27833;SDS011;15200;50.570;7.244;2023-05-29T07:04:59;9.08;;;4.25;;
27833;SDS011;15200;50.570;7.244;2023-05-29T07:07:26;10.35;;;4.33;;
27833;SDS011;15200;50.570;7.244;2023-05-29T07:09:54;8.53;;;4.58;;
27833;SDS011;15200;50.570;7.244;2023-05-29T07:12:21;18.42;;;4.80;;
27833;SDS011;15200;50.570;7.244;2023-05-29T07:14:49;9.33;;;3.98;;
27833;SDS011;15200;50.570;7.244;2023-05-29T07:17:17;13.10;;;3.98;;
27833;SDS011;15200;50.570;7.244;2023-05-29T07:19:44;19.50;;;4.95;;
27833;SDS011;15200;50.570;7.244;2023-05-29T07:22:12;10.98;;;4.95;;
27833;SDS011;15200;50.570;7.244;2023-05-29T07:24:40;7.65;;;4.33;;
27833;SDS011;15200;50.570;7.244;2023-05-29T07:27:07;12.40;;;4.87;;
27833;SDS011;15200;50.570;7.244;2023-05-29T07:29:34;7.95;;;3.72;;
27833;SDS011;15200;50.570;7.244;2023-05-29T07:32:02;7.08;;;4.35;;
27833;SDS011;15200;50.570;7.244;2023-05-29T07:34:29;8.10;;;4.37;;
27833;SDS011;15200;50.570;7.244;2023-05-29T07:37:01;13.55;;;4.28;;
27833;SDS011;15200;50.570;7.244;2023-05-29T07:39:29;7.17;;;4.12;;
27833;SDS011;15200;50.570;7.244;2023-05-29T07:41:56;9.28;;;4.53;;
27833;SDS011;15200;50.570;7.244;2023-05-29T07:44:24;10.43;;;4.22;;
27833;SDS011;15200;50.570;7.244;2023-05-29T07:46:52;10.40;;;4.12;;
27833;SDS011;15200;50.570;7.244;2023-05-29T07:49:19;8.85;;;4.00;;
27833;SDS011;15200;50.570;7.244;2023-05-29T07:51:47;10.72;;;4.30;;
27833;SDS011;15200;50.570;7.244;2023-05-29T07:54:14;7.45;;;4.20;;
27833;SDS011;15200;50.570;7.244;2023-05-29T07:56:43;7.12;;;4.45;;
27833;SDS011;15200;50.570;7.244;2023-05-29T07:59:10;9.18;;;4.08;;
27833;SDS011;15200;50.570;7.244;2023-05-29T08:01:38;9.45;;;4.28;;
27833;SDS011;15200;50.570;7.244;2023-05-29T08:04:05;6.17;;;3.92;;
27833;SDS011;15200;50.570;7.244;2023-05-29T08:06:32;7.47;;;4.10;;
27833;SDS011;15200;50.570;7.244;2023-05-29T08:09:00;8.13;;;4.53;;
27833;SDS011;15200;50.570;7.244;2023-05-29T08:11:27;12.95;;;4.55;;
27833;SDS011;15200;50.570;7.244;2023-05-29T08:13:55;9.85;;;4.30;;
27833;SDS011;15200;50.570;7.244;2023-05-29T08:16:22;11.10;;;4.33;;
27833;SDS011;15200;50.570;7.244;2023-05-29T08:18:49;12.95;;;4.53;;
27833;SDS011;15200;50.570;7.244;2023-05-29T08:21:17;12.53;;;4.97;;
27833;SDS011;15200;50.570;7.244;2023-05-29T08:23:44;10.15;;;3.90;;
27833;SDS011;15200;50.570;7.244;2023-05-29T08:26:11;9.25;;;4.10;;
27833;SDS011;15200;50.570;7.244;2023-05-29T08:28:39;12.13;;;4.72;;
27833;SDS011;15200;50.570;7.244;2023-05-29T08:31:06;9.88;;;4.58;;
27833;SDS011;15200;50.570;7.244;2023-05-29T08:33:34;10.53;;;4.20;;
27833;SDS011;15200;50.570;7.244;2023-05-29T08:36:03;7.83;;;4.03;;
27833;SDS011;15200;50.570;7.244;2023-05-29T08:38:30;9.33;;;4.08;;
27833;SDS011;15200;50.570;7.244;2023-05-29T08:40:57;11.63;;;4.58;;
27833;SDS011;15200;50.570;7.244;2023-05-29T08:43:25;8.05;;;3.92;;
27833;SDS011;15200;50.570;7.244;2023-05-29T08:45:53;9.18;;;4.15;;
27833;SDS011;15200;50.570;7.244;2023-05-29T08:48:25;10.65;;;4.67;;
27833;SDS011;15200;50.570;7.244;2023-05-29T08:50:52;7.60;;;4.10;;
27833;SDS011;15200;50.570;7.244;2023-05-29T08:53:23;8.80;;;3.98;;
27833;SDS011;15200;50.570;7.244;2023-05-29T08:55:51;8.65;;;4.15;;
27833;SDS011;15200;50.570;7.244;2023-05-29T08:58:19;10.38;;;4.47;;
27833;SDS011;15200;50.570;7.244;2023-05-29T09:00:50;7.95;;;4.03;;
27833;SDS011;15200;50.570;7.244;2023-05-29T09:03:21;8.83;;;3.95;;
27833;SDS011;15200;50.570;7.244;2023-05-29T09:05:48;8.30;;;4.40;;
27833;SDS011;15200;50.570;7.244;2023-05-29T09:08:16;8.70;;;4.08;;
27833;SDS011;15200;50.570;7.244;2023-05-29T09:10:43;10.32;;;4.53;;
27833;SDS011;15200;50.570;7.244;2023-05-29T09:13:11;7.58;;;4.03;;
27833;SDS011;15200;50.570;7.244;2023-05-29T09:15:40;11.15;;;4.53;;
27833;SDS011;15200;50.570;7.244;2023-05-29T09:18:09;8.48;;;3.92;;
27833;SDS011;15200;50.570;7.244;2023-05-29T09:20:36;10.72;;;4.90;;
27833;SDS011;15200;50.570;7.244;2023-05-29T09:23:04;7.83;;;3.87;;
27833;SDS011;15200;50.570;7.244;2023-05-29T09:25:32;7.30;;;3.65;;
27833;SDS011;15200;50.570;7.244;2023-05-29T09:28:00;10.80;;;4.10;;
27833;SDS011;15200;50.570;7.244;2023-05-29T09:30:45;7.87;;;4.00;;
27833;SDS011;15200;50.570;7.244;2023-05-29T09:33:15;9.55;;;3.98;;
27833;SDS011;15200;50.570;7.244;2023-05-29T09:35:43;10.20;;;3.98;;
27833;SDS011;15200;50.570;7.244;2023-05-29T09:38:11;10.63;;;4.05;;
27833;SDS011;15200;50.570;7.244;2023-05-29T09:40:39;7.40;;;4.20;;
27833;SDS011;15200;50.570;7.244;2023-05-29T09:43:16;10.20;;;3.90;;
27833;SDS011;15200;50.570;7.244;2023-05-29T09:45:44;8.80;;;4.08;;
27833;SDS011;15200;50.570;7.244;2023-05-29T09:48:16;7.85;;;3.50;;
27833;SDS011;15200;50.570;7.244;2023-05-29T09:50:41;9.35;;;4.08;;
27833;SDS011;15200;50.570;7.244;2023-05-29T09:53:17;7.30;;;4.00;;
27833;SDS011;15200;50.570;7.244;2023-05-29T09:55:48;7.50;;;4.03;;
27833;SDS011;15200;50.570;7.244;2023-05-29T09:58:19;10.63;;;4.37;;
27833;SDS011;15200;50.570;7.244;2023-05-29T10:00:47;9.00;;;4.20;;
27833;SDS011;15200;50.570;7.244;2023-05-29T10:03:15;9.75;;;4.45;;
27833;SDS011;15200;50.570;7.244;2023-05-29T10:05:43;9.75;;;3.92;;
27833;SDS011;15200;50.570;7.244;2023-05-29T10:08:12;9.18;;;3.95;;
27833;SDS011;15200;50.570;7.244;2023-05-29T10:10:43;8.45;;;3.92;;
27833;SDS011;15200;50.570;7.244;2023-05-29T10:13:13;9.08;;;4.35;;
27833;SDS011;15200;50.570;7.244;2023-05-29T10:15:41;10.72;;;3.85;;
27833;SDS011;15200;50.570;7.244;2023-05-29T10:18:20;11.57;;;4.10;;
27833;SDS011;15200;50.570;7.244;2023-05-29T10:20:49;7.83;;;4.17;;
27833;SDS011;15200;50.570;7.244;2023-05-29T10:23:22;8.25;;;3.52;;
27833;SDS011;15200;50.570;7.244;2023-05-29T10:25:50;7.75;;;3.58;;
27833;SDS011;15200;50.570;7.244;2023-05-29T10:28:19;8.95;;;3.65;;
27833;SDS011;15200;50.570;7.244;2023-05-29T10:30:54;8.70;;;3.58;;
27833;SDS011;15200;50.570;7.244;2023-05-29T10:33:33;6.28;;;3.15;;
27833;SDS011;15200;50.570;7.244;2023-05-29T10:36:02;7.67;;;3.60;;
27833;SDS011;15200;50.570;7.244;2023-05-29T10:38:29;6.87;;;3.58;;
27833;SDS011;15200;50.570;7.244;2023-05-29T10:40:56;10.43;;;3.65;;
27833;SDS011;15200;50.570;7.244;2023-05-29T10:43:32;9.40;;;3.30;;
27833;SDS011;15200;50.570;7.244;2023-05-29T10:46:00;8.35;;;3.92;;
27833;SDS011;15200;50.570;7.244;2023-05-29T10:48:36;6.53;;;3.60;;
27833;SDS011;15200;50.570;7.244;2023-05-29T10:50:56;10.78;;;3.62;;
27833;SDS011;15200;50.570;7.244;2023-05-29T10:53:24;9.30;;;3.58;;
27833;SDS011;15200;50.570;7.244;2023-05-29T10:55:53;8.98;;;3.30;;
27833;SDS011;15200;50.570;7.244;2023-05-29T10:58:21;7.30;;;3.90;;
27833;SDS011;15200;50.570;7.244;2023-05-29T11:00:52;6.72;;;2.98;;
27833;SDS011;15200;50.570;7.244;2023-05-29T11:03:21;7.45;;;3.30;;
27833;SDS011;15200;50.570;7.244;2023-05-29T11:05:59;6.95;;;3.02;;
27833;SDS011;15200;50.570;7.244;2023-05-29T11:08:18;9.65;;;3.05;;
27833;SDS011;15200;50.570;7.244;2023-05-29T11:13:25;8.35;;;3.50;;
27833;SDS011;15200;50.570;7.244;2023-05-29T11:16:05;5.37;;;2.90;;
27833;SDS011;15200;50.570;7.244;2023-05-29T11:18:38;10.80;;;3.35;;
27833;SDS011;15200;50.570;7.244;2023-05-29T11:21:02;6.45;;;3.30;;
27833;SDS011;15200;50.570;7.244;2023-05-29T11:23:31;10.82;;;3.62;;
27833;SDS011;15200;50.570;7.244;2023-05-29T11:25:58;5.90;;;2.70;;
27833;SDS011;15200;50.570;7.244;2023-05-29T11:28:27;7.60;;;2.98;;
27833;SDS011;15200;50.570;7.244;2023-05-29T11:30:54;8.00;;;3.10;;
27833;SDS011;15200;50.570;7.244;2023-05-29T11:33:23;5.78;;;2.95;;
27833;SDS011;15200;50.570;7.244;2023-05-29T11:36:00;8.53;;;3.35;;
27833;SDS011;15200;50.570;7.244;2023-05-29T11:38:24;8.13;;;3.20;;
27833;SDS011;15200;50.570;7.244;2023-05-29T11:40:55;5.97;;;3.10;;
27833;SDS011;15200;50.570;7.244;2023-05-29T11:43:24;5.90;;;3.35;;
27833;SDS011;15200;50.570;7.244;2023-05-29T11:45:52;10.30;;;3.55;;
27833;SDS011;15200;50.570;7.244;2023-05-29T11:48:19;11.48;;;3.45;;
27833;SDS011;15200;50.570;7.244;2023-05-29T11:50:48;6.95;;;3.02;;
27833;SDS011;15200;50.570;7.244;2023-05-29T11:53:15;7.65;;;3.12;;
27833;SDS011;15200;50.570;7.244;2023-05-29T11:55:42;7.33;;;3.22;;
27833;SDS011;15200;50.570;7.244;2023-05-29T11:58:10;7.58;;;3.12;;
27833;SDS011;15200;50.570;7.244;2023-05-29T12:00:38;8.50;;;2.90;;
27833;SDS011;15200;50.570;7.244;2023-05-29T12:03:06;11.68;;;2.87;;
27833;SDS011;15200;50.570;7.244;2023-05-29T12:05:47;6.00;;;2.98;;
27833;SDS011;15200;50.570;7.244;2023-05-29T12:08:22;12.43;;;2.90;;
27833;SDS011;15200;50.570;7.244;2023-05-29T12:10:51;8.10;;;3.05;;
27833;SDS011;15200;50.570;7.244;2023-05-29T12:13:19;7.08;;;3.15;;
27833;SDS011;15200;50.570;7.244;2023-05-29T12:15:47;6.90;;;3.00;;
27833;SDS011;15200;50.570;7.244;2023-05-29T12:18:14;7.37;;;3.22;;
27833;SDS011;15200;50.570;7.244;2023-05-29T12:20:42;10.18;;;3.17;;
27833;SDS011;15200;50.570;7.244;2023-05-29T12:23:10;7.05;;;2.75;;
27833;SDS011;15200;50.570;7.244;2023-05-29T12:25:39;7.87;;;3.35;;
27833;SDS011;15200;50.570;7.244;2023-05-29T12:28:06;10.15;;;3.58;;
27833;SDS011;15200;50.570;7.244;2023-05-29T12:30:37;6.05;;;2.83;;
27833;SDS011;15200;50.570;7.244;2023-05-29T12:33:06;11.97;;;4.22;;
27833;SDS011;15200;50.570;7.244;2023-05-29T12:35:34;6.55;;;3.35;;
27833;SDS011;15200;50.570;7.244;2023-05-29T12:38:02;11.55;;;3.65;;
27833;SDS011;15200;50.570;7.244;2023-05-29T12:40:31;5.95;;;2.87;;
27833;SDS011;15200;50.570;7.244;2023-05-29T12:43:00;7.87;;;3.15;;
27833;SDS011;15200;50.570;7.244;2023-05-29T12:45:29;9.18;;;3.15;;
27833;SDS011;15200;50.570;7.244;2023-05-29T12:47:57;5.75;;;2.55;;
27833;SDS011;15200;50.570;7.244;2023-05-29T12:50:25;7.87;;;2.85;;
27833;SDS011;15200;50.570;7.244;2023-05-29T12:52:53;8.35;;;3.05;;
27833;SDS011;15200;50.570;7.244;2023-05-29T12:55:21;7.03;;;3.17;;
27833;SDS011;15200;50.570;7.244;2023-05-29T12:57:48;8.85;;;2.90;;
27833;SDS011;15200;50.570;7.244;2023-05-29T13:00:18;10.32;;;3.05;;
27833;SDS011;15200;50.570;7.244;2023-05-29T13:02:46;6.75;;;2.62;;
27833;SDS011;15200;50.570;7.244;2023-05-29T13:05:14;5.87;;;3.08;;
27833;SDS011;15200;50.570;7.244;2023-05-29T13:07:42;6.55;;;3.30;;
27833;SDS011;15200;50.570;7.244;2023-05-29T13:10:09;6.67;;;3.05;;
27833;SDS011;15200;50.570;7.244;2023-05-29T13:12:37;9.75;;;3.40;;
27833;SDS011;15200;50.570;7.244;2023-05-29T13:15:04;7.28;;;2.87;;
27833;SDS011;15200;50.570;7.244;2023-05-29T13:17:32;6.97;;;3.22;;
27833;SDS011;15200;50.570;7.244;2023-05-29T13:19:59;8.03;;;2.92;;
27833;SDS011;15200;50.570;7.244;2023-05-29T13:22:26;7.42;;;3.17;;
27833;SDS011;15200;50.570;7.244;2023-05-29T13:24:58;6.95;;;2.85;;
27833;SDS011;15200;50.570;7.244;2023-05-29T13:27:26;5.37;;;2.80;;
27833;SDS011;15200;50.570;7.244;2023-05-29T13:29:53;8.85;;;3.58;;
27833;SDS011;15200;50.570;7.244;2023-05-29T13:32:21;5.97;;;2.85;;
27833;SDS011;15200;50.570;7.244;2023-05-29T13:34:49;9.10;;;2.83;;
27833;SDS011;15200;50.570;7.244;2023-05-29T13:37:16;6.25;;;2.92;;
27833;SDS011;15200;50.570;7.244;2023-05-29T13:39:43;9.03;;;3.30;;
27833;SDS011;15200;50.570;7.244;2023-05-29T13:42:10;7.05;;;2.95;;
27833;SDS011;15200;50.570;7.244;2023-05-29T13:44:38;5.83;;;2.83;;
27833;SDS011;15200;50.570;7.244;2023-05-29T13:47:05;7.60;;;2.70;;
27833;SDS011;15200;50.570;7.244;2023-05-29T13:49:34;4.95;;;2.67;;
27833;SDS011;15200;50.570;7.244;2023-05-29T13:52:02;7.90;;;3.35;;
27833;SDS011;15200;50.570;7.244;2023-05-29T13:54:29;10.28;;;2.72;;
27833;SDS011;15200;50.570;7.244;2023-05-29T13:56:58;5.62;;;2.72;;
27833;SDS011;15200;50.570;7.244;2023-05-29T13:59:26;8.58;;;2.87;;
27833;SDS011;15200;50.570;7.244;2023-05-29T14:01:53;7.12;;;2.90;;
27833;SDS011;15200;50.570;7.244;2023-05-29T14:04:21;4.15;;;2.47;;
27833;SDS011;15200;50.570;7.244;2023-05-29T14:06:48;7.75;;;3.10;;
27833;SDS011;15200;50.570;7.244;2023-05-29T14:09:15;5.47;;;2.80;;
27833;SDS011;15200;50.570;7.244;2023-05-29T14:11:43;6.03;;;2.98;;
27833;SDS011;15200;50.570;7.244;2023-05-29T14:14:10;9.25;;;3.27;;
27833;SDS011;15200;50.570;7.244;2023-05-29T14:16:38;6.92;;;2.77;;
27833;SDS011;15200;50.570;7.244;2023-05-29T14:19:05;5.67;;;2.80;;
27833;SDS011;15200;50.570;7.244;2023-05-29T14:21:32;7.75;;;2.72;;
27833;SDS011;15200;50.570;7.244;2023-05-29T14:24:00;7.67;;;2.35;;
27833;SDS011;15200;50.570;7.244;2023-05-29T14:26:27;9.05;;;2.77;;
27833;SDS011;15200;50.570;7.244;2023-05-29T14:28:54;7.75;;;2.72;;
27833;SDS011;15200;50.570;7.244;2023-05-29T14:31:22;6.10;;;2.58;;
27833;SDS011;15200;50.570;7.244;2023-05-29T14:33:49;7.75;;;3.20;;
27833;SDS011;15200;50.570;7.244;2023-05-29T14:36:16;10.23;;;2.75;;
27833;SDS011;15200;50.570;7.244;2023-05-29T14:38:44;7.25;;;3.40;;
27833;SDS011;15200;50.570;7.244;2023-05-29T14:41:12;9.30;;;3.20;;
27833;SDS011;15200;50.570;7.244;2023-05-29T14:43:41;6.35;;;2.58;;
27833;SDS011;15200;50.570;7.244;2023-05-29T14:46:09;7.78;;;3.17;;
27833;SDS011;15200;50.570;7.244;2023-05-29T14:48:36;7.87;;;2.67;;
27833;SDS011;15200;50.570;7.244;2023-05-29T14:51:03;7.95;;;3.50;;
27833;SDS011;15200;50.570;7.244;2023-05-29T14:53:31;5.80;;;2.80;;
27833;SDS011;15200;50.570;7.244;2023-05-29T14:55:58;8.70;;;2.98;;
27833;SDS011;15200;50.570;7.244;2023-05-29T14:58:26;8.18;;;2.83;;